Time;durP1;ratioP1;P1;durP2;ratioP2;P2;SDS_P1;SDS_P2;PMS_P1;PMS_P2;Temp;Humidity;BMP_temperature;BMP_pressure;BME280_temperature;BME280_humidity;BME280_pressure;Samples;Min_cycle;Max_cycle;Signal;HPM_P1;HPM_P2
2023/01/14 00:02:24;;;;;;;8.30;2.40;;;;;;;7.28;100.00;100926.75;5027869;28;20214;-73
2023/01/14 00:04:50;;;;;;;11.97;2.30;;;;;;;7.30;100.00;100917.47;5026426;28;20198;-73
2023/01/14 00:07:16;;;;;;;6.60;2.20;;;;;;;7.30;100.00;100920.91;5029099;28;20206;-73
2023/01/14 00:09:42;;;;;;;8.83;2.70;;;;;;;7.28;100.00;100914.03;5021009;28;20199;-73
2023/01/14 00:12:08;;;;;;;8.07;1.83;;;;;;;7.28;100.00;100921.66;5011113;28;20206;-73
2023/01/14 00:14:33;;;;;;;9.90;1.87;;;;;;;7.30;100.00;100925.13;5029881;28;20754;-73
2023/01/14 00:17:00;;;;;;;13.63;2.27;;;;;;;7.30;100.00;100925.13;5025963;28;20217;-73
2023/01/14 00:19:26;;;;;;;7.40;2.60;;;;;;;7.28;100.00;100925.06;5024191;28;20686;-73
2023/01/14 00:21:54;;;;;;;11.60;2.53;;;;;;;7.25;100.00;100921.56;5028518;28;20218;-73
2023/01/14 00:24:21;;;;;;;14.07;2.47;;;;;;;7.25;100.00;100924.97;5024718;28;20215;-73
2023/01/14 00:26:50;;;;;;;8.20;2.30;;;;;;;7.27;100.00;100927.59;5029680;28;20277;-73
2023/01/14 00:29:19;;;;;;;9.10;1.93;;;;;;;7.25;100.00;100932.63;5004582;28;20855;-72
2023/01/14 00:31:45;;;;;;;9.37;2.50;;;;;;;7.28;100.00;100929.31;5030298;28;20213;-72
2023/01/14 00:34:12;;;;;;;9.07;2.27;;;;;;;7.30;100.00;100936.19;5008173;28;20621;-72
2023/01/14 00:36:37;;;;;;;10.53;2.20;;;;;;;7.32;100.00;100937.09;5028373;28;20242;-72
2023/01/14 00:39:03;;;;;;;8.67;2.10;;;;;;;7.36;100.00;100951.66;5006401;28;20206;-73
2023/01/14 00:41:29;;;;;;;11.70;2.47;;;;;;;7.39;100.00;100948.34;5025614;28;20240;-73
2023/01/14 00:43:57;;;;;;;7.27;1.73;;;;;;;7.39;100.00;100948.34;5022994;28;20186;-72
2023/01/14 00:46:28;;;;;;;12.13;1.83;;;;;;;7.41;100.00;100945.03;5010460;28;20187;-73
2023/01/14 00:48:56;;;;;;;9.07;2.83;;;;;;;7.38;100.00;100950.03;5008416;28;20201;-73
2023/01/14 00:51:22;;;;;;;5.10;2.10;;;;;;;7.37;100.00;100953.38;5009190;28;20207;-72
2023/01/14 00:53:48;;;;;;;8.90;2.53;;;;;;;7.35;100.00;100964.34;5018242;28;20194;-73
2023/01/14 00:56:20;;;;;;;6.63;1.90;;;;;;;7.34;100.00;100966.03;5023823;28;20984;-73
2023/01/14 00:58:46;;;;;;;10.37;2.40;;;;;;;7.33;100.00;100968.53;4994213;28;20240;-73
2023/01/14 01:01:12;;;;;;;7.27;1.63;;;;;;;7.30;100.00;100978.59;5027761;28;20263;-74
2023/01/14 01:03:40;;;;;;;14.20;2.30;;;;;;;7.27;100.00;100975.97;5027747;28;20198;-73
2023/01/14 01:06:07;;;;;;;11.93;2.97;;;;;;;7.28;100.00;100975.16;5026983;28;20190;-73
2023/01/14 01:08:32;;;;;;;10.23;2.50;;;;;;;7.29;100.00;100976.88;5024488;28;20187;-73
2023/01/14 01:10:59;;;;;;;11.60;2.47;;;;;;;7.30;100.00;100981.16;5001046;28;20686;-73
2023/01/14 01:13:24;;;;;;;7.90;2.30;;;;;;;7.28;100.00;100983.63;5020274;28;20190;-73
2023/01/14 01:15:51;;;;;;;8.63;1.70;;;;;;;7.27;100.00;100981.91;5026821;28;20630;-73
2023/01/14 01:18:17;;;;;;;8.13;1.90;;;;;;;7.24;100.00;100984.34;5019808;28;20190;-73
2023/01/14 01:20:43;;;;;;;11.47;2.57;;;;;;;7.27;100.00;100986.16;5003636;28;20236;-73
2023/01/14 01:23:13;;;;;;;6.93;1.70;;;;;;;7.27;100.00;100986.16;5023074;28;20203;-73
2023/01/14 01:25:38;;;;;;;10.60;2.00;;;;;;;7.28;100.00;100992.97;5023695;28;20539;-73
2023/01/14 01:28:05;;;;;;;7.70;1.93;;;;;;;7.28;100.00;100998.91;5022934;28;20289;-73
2023/01/14 01:30:30;;;;;;;9.07;2.60;;;;;;;7.29;100.00;101013.41;5013086;28;20182;-73
2023/01/14 01:32:56;;;;;;;9.40;2.20;;;;;;;7.28;100.00;101005.72;5020305;28;20269;-73
2023/01/14 01:35:22;;;;;;;6.60;1.80;;;;;;;7.26;100.00;101009.88;5022593;28;20179;-73
2023/01/14 01:37:48;;;;;;;9.97;2.30;;;;;;;7.19;100.00;101000.28;5003387;28;20202;-73
2023/01/14 01:40:14;;;;;;;6.20;1.37;;;;;;;7.19;100.00;101005.38;5024033;28;20233;-73
2023/01/14 01:42:55;;;;;;;10.23;2.27;;;;;;;7.19;100.00;101010.47;5008948;28;20312;-73
2023/01/14 01:45:32;;;;;;;5.90;2.20;;;;;;;7.18;100.00;101013.84;5025527;28;20193;-73
2023/01/14 01:48:09;;;;;;;10.77;2.40;;;;;;;7.19;100.00;101021.50;5025401;28;20667;-73
2023/01/14 01:50:34;;;;;;;8.07;1.80;;;;;;;7.17;100.00;101023.16;5026618;28;20201;-73
2023/01/14 01:53:02;;;;;;;7.93;1.63;;;;;;;7.20;100.00;101030.91;5026182;28;20213;-73
2023/01/14 01:55:31;;;;;;;7.40;2.00;;;;;;;7.18;100.00;101035.06;5019615;28;20194;-73
2023/01/14 01:57:56;;;;;;;7.10;1.70;;;;;;;7.20;100.00;101050.41;5007540;28;20588;-73
2023/01/14 02:00:24;;;;;;;11.13;2.17;;;;;;;7.21;100.00;101045.38;5027780;28;20276;-73
2023/01/14 02:02:57;;;;;;;9.90;1.93;;;;;;;7.26;100.00;101038.75;5018762;28;20623;-73
2023/01/14 02:05:23;;;;;;;12.93;2.10;;;;;;;7.26;100.00;101060.78;5009089;28;20232;-72
2023/01/14 02:07:48;;;;;;;6.23;1.63;;;;;;;7.24;100.00;101055.63;5002843;28;20686;-73
2023/01/14 02:10:15;;;;;;;7.70;2.07;;;;;;;7.24;100.00;101057.34;5021049;28;20270;-73
2023/01/14 02:13:04;;;;;;;9.57;1.63;;;;;;;7.25;100.00;101069.25;5006936;28;20209;-73
2023/01/14 02:15:39;;;;;;;8.50;1.63;;;;;;;7.26;100.00;101081.16;5027115;28;20190;-73
2023/01/14 02:18:24;;;;;;;7.47;2.13;;;;;;;7.28;100.00;101066.81;5008081;28;20221;-73
2023/01/14 02:21:03;;;;;;;7.70;2.03;;;;;;;7.32;100.00;101061.88;4992290;28;20213;-73
2023/01/14 02:23:53;;;;;;;7.97;1.70;;;;;;;7.31;100.00;101067.78;5028992;28;20243;-73
2023/01/14 02:26:56;;;;;;;10.37;2.17;;;;;;;7.29;100.00;101066.88;5022665;28;20611;-73
2023/01/14 02:29:39;;;;;;;10.37;2.00;;;;;;;7.30;100.00;101073.72;5008740;28;20194;-73
2023/01/14 02:32:31;;;;;;;5.40;1.80;;;;;;;7.28;100.00;101065.13;5010706;28;20207;-73
2023/01/14 02:35:26;;;;;;;5.07;1.80;;;;;;;7.28;100.00;101072.78;5010596;28;20202;-73
2023/01/14 02:38:03;;;;;;;7.57;2.30;;;;;;;7.28;100.00;101079.56;5024450;28;20190;-73
2023/01/14 02:40:42;;;;;;;5.87;1.90;;;;;;;7.29;100.00;101082.16;5012273;28;20731;-73
2023/01/14 02:46:36;;;;;;;10.80;2.23;;;;;;;7.29;100.00;101082.16;5012100;28;20189;-73
2023/01/14 02:49:10;;;;;;;8.10;2.47;;;;;;;7.26;100.00;101074.41;5023113;28;20194;-72
2023/01/14 02:51:37;;;;;;;6.63;2.30;;;;;;;7.25;100.00;101082.88;5006386;28;20302;-72
2023/01/14 02:54:05;;;;;;;4.53;1.90;;;;;;;7.24;100.00;101083.66;5009322;28;20190;-73
2023/01/14 02:56:33;;;;;;;7.37;2.10;;;;;;;7.22;100.00;101081.88;5005796;28;20214;-73
2023/01/14 02:59:26;;;;;;;7.87;2.20;;;;;;;7.22;100.00;101079.31;5001225;28;20190;-73
2023/01/14 03:02:20;;;;;;;10.70;2.00;;;;;;;7.18;100.00;101080.03;5027543;28;20596;-73
2023/01/14 03:04:57;;;;;;;5.73;2.30;;;;;;;7.14;100.00;101080.75;5025170;28;20755;-73
2023/01/14 03:07:42;;;;;;;8.03;2.20;;;;;;;7.12;100.00;101080.69;5009973;28;20214;-73
2023/01/14 03:10:24;;;;;;;7.20;2.00;;;;;;;7.10;100.00;101086.53;5024763;28;20191;-72
2023/01/14 03:13:24;;;;;;;6.53;2.10;;;;;;;7.09;100.00;101087.34;5001869;28;20689;-73
2023/01/14 03:15:57;;;;;;;5.07;1.73;;;;;;;7.08;100.00;101089.00;5004704;28;20199;-72
2023/01/14 03:18:25;;;;;;;5.30;1.90;;;;;;;7.10;100.00;101096.72;5027226;28;20191;-73
2023/01/14 03:21:09;;;;;;;4.50;1.77;;;;;;;7.07;100.00;101094.94;5024499;28;20225;-73
2023/01/14 03:23:43;;;;;;;9.87;1.80;;;;;;;7.06;100.00;101093.19;5032353;28;20198;-73
2023/01/14 03:26:10;;;;;;;7.37;2.10;;;;;;;7.06;100.00;101089.78;5023936;28;20593;-74
2023/01/14 03:28:40;;;;;;;4.70;2.27;;;;;;;7.06;100.00;101089.78;5011744;28;20695;-73
2023/01/14 03:31:10;;;;;;;7.60;2.00;;;;;;;7.05;100.00;101091.44;5025135;28;20203;-73
2023/01/14 03:33:54;;;;;;;8.07;2.60;;;;;;;7.08;100.00;101093.22;5018139;28;20282;-73
2023/01/14 03:36:22;;;;;;;12.43;2.87;;;;;;;7.07;100.00;101105.09;5021679;28;20200;-73
2023/01/14 03:39:06;;;;;;;7.53;2.30;;;;;;;7.08;100.00;101100.88;5028366;28;20204;-73
2023/01/14 03:44:26;;;;;;;9.77;1.93;;;;;;;7.00;100.00;101109.91;5026403;28;20190;-74
2023/01/14 03:46:52;;;;;;;6.67;3.07;;;;;;;6.96;100.00;101114.00;5020000;28;20198;-73
2023/01/14 03:49:18;;;;;;;6.00;3.10;;;;;;;6.94;100.00;101118.19;5023681;28;20531;-73
2023/01/14 03:51:53;;;;;;;12.00;2.77;;;;;;;6.85;100.00;101104.22;5026619;28;20212;-73
2023/01/14 03:54:34;;;;;;;11.13;2.50;;;;;;;6.81;100.00;101107.50;5022512;28;20187;-73
2023/01/14 03:57:25;;;;;;;10.17;3.97;;;;;;;6.79;100.00;101115.06;5010167;28;22224;-73
2023/01/14 03:59:59;;;;;;;13.67;3.27;;;;;;;6.80;100.00;101118.44;5027902;28;20202;-73
2023/01/14 04:02:28;;;;;;;7.73;2.97;;;;;;;6.80;100.00;101119.34;5025884;28;20218;-73
2023/01/14 04:04:55;;;;;;;12.40;3.37;;;;;;;6.81;100.00;101115.13;5024324;28;20194;-74
2023/01/14 04:07:22;;;;;;;9.03;2.77;;;;;;;6.83;100.00;101121.13;5024719;28;20285;-73
2023/01/14 04:09:47;;;;;;;7.40;2.70;;;;;;;6.82;100.00;101119.41;5007296;28;20194;-73
2023/01/14 04:12:13;;;;;;;8.93;2.63;;;;;;;6.86;100.00;101124.66;5029380;28;20226;-73
2023/01/14 04:17:22;;;;;;;7.90;2.23;;;;;;;6.89;100.00;101127.31;5026996;28;20190;-72
2023/01/14 04:19:47;;;;;;;7.50;2.30;;;;;;;6.91;100.00;101124.84;5027449;28;20547;-73
2023/01/14 04:22:13;;;;;;;12.30;2.47;;;;;;;6.88;100.00;101128.13;5029455;28;20262;-73
2023/01/14 04:24:38;;;;;;;3.33;1.80;;;;;;;6.89;100.00;101128.97;5010877;28;20189;-73
2023/01/14 04:27:04;;;;;;;6.40;2.20;;;;;;;6.85;100.00;101135.63;5028311;28;20195;-72
2023/01/14 04:29:30;;;;;;;6.93;1.80;;;;;;;6.86;100.00;101139.06;5029459;28;20210;-72
2023/01/14 04:31:55;;;;;;;4.77;1.60;;;;;;;6.87;100.00;101135.72;5029251;28;20771;-73
2023/01/14 04:34:20;;;;;;;7.83;1.70;;;;;;;6.85;100.00;101137.31;5023536;28;20277;-72
2023/01/14 04:36:46;;;;;;;6.20;1.47;;;;;;;6.85;100.00;101137.31;5027954;28;20336;-72
2023/01/14 04:39:11;;;;;;;5.07;1.83;;;;;;;6.85;100.00;101127.13;5025925;28;20187;-73
2023/01/14 04:44:20;;;;;;;7.87;2.50;;;;;;;6.83;100.00;101141.47;5024946;28;20605;-72
2023/01/14 04:46:46;;;;;;;6.60;2.53;;;;;;;6.82;100.00;101142.28;5022409;28;20271;-72
2023/01/14 04:49:11;;;;;;;6.53;2.70;;;;;;;6.81;100.00;101138.03;5027180;28;20194;-72
2023/01/14 04:51:37;;;;;;;6.00;2.57;;;;;;;6.81;100.00;101148.19;5024394;28;20214;-72
2023/01/14 04:54:02;;;;;;;9.30;3.30;;;;;;;6.80;100.00;101146.44;5026595;28;20329;-72
2023/01/14 04:56:28;;;;;;;8.83;2.87;;;;;;;6.79;100.00;101152.34;5026976;28;20568;-72
2023/01/14 04:58:53;;;;;;;10.73;3.10;;;;;;;6.79;100.00;101143.03;5027084;28;20186;-72
2023/01/14 05:01:19;;;;;;;7.80;3.07;;;;;;;6.77;100.00;101152.28;5023917;28;20327;-72
2023/01/14 05:03:44;;;;;;;7.90;3.00;;;;;;;6.76;100.00;101153.09;5026528;28;20190;-73
2023/01/14 05:06:09;;;;;;;9.67;3.40;;;;;;;6.76;100.00;101152.22;5025384;28;20210;-73
2023/01/14 05:08:35;;;;;;;9.57;3.10;;;;;;;6.76;100.00;101144.59;5015736;28;20206;-73
2023/01/14 05:11:00;;;;;;;8.60;3.60;;;;;;;6.77;100.00;101152.28;5029566;28;20194;-73
2023/01/14 05:13:26;;;;;;;9.37;4.10;;;;;;;6.77;100.00;101152.28;5026749;28;20260;-73
2023/01/14 05:15:51;;;;;;;11.03;4.77;;;;;;;6.78;100.00;101148.06;5027724;28;20563;-73
2023/01/14 05:18:17;;;;;;;15.30;4.23;;;;;;;6.77;100.00;101144.66;5027126;28;20209;-73
2023/01/14 05:20:43;;;;;;;10.90;4.40;;;;;;;6.80;100.00;101138.81;5010435;28;20210;-73
2023/01/14 05:23:12;;;;;;;15.57;4.23;;;;;;;6.77;100.00;101144.66;5023501;28;20237;-73
2023/01/14 05:25:38;;;;;;;12.70;4.10;;;;;;;6.78;100.00;101148.06;5024969;28;20221;-73
2023/01/14 05:28:06;;;;;;;12.67;4.13;;;;;;;6.78;100.00;101137.88;5007175;28;20221;-72
2023/01/14 05:30:32;;;;;;;13.93;4.53;;;;;;;6.75;100.00;101138.63;5031124;28;20190;-72
2023/01/14 05:32:57;;;;;;;11.57;4.93;;;;;;;6.73;100.00;101129.22;5022324;28;20209;-72
2023/01/14 05:35:23;;;;;;;12.90;4.33;;;;;;;6.69;100.00;101133.31;5003481;28;20194;-72
2023/01/14 05:37:49;;;;;;;11.57;3.97;;;;;;;6.73;100.00;101134.31;5024118;28;20586;-73
2023/01/14 05:40:15;;;;;;;9.23;3.60;;;;;;;6.72;100.00;101135.13;5021559;28;20230;-72
2023/01/14 05:48:29;;;;;;;16.13;4.27;;;;;;;6.79;100.00;101152.34;4966533;28;20224;-73
2023/01/14 05:50:57;;;;;;;24.57;4.97;;;;;;;6.80;100.00;101142.22;4958530;28;20417;-72
2023/01/14 05:53:23;;;;;;;14.03;4.17;;;;;;;6.84;100.00;101145.75;4994694;28;20203;-73
2023/01/14 05:55:49;;;;;;;14.47;3.90;;;;;;;6.82;100.00;101138.06;5022336;28;20225;-72
2023/01/14 05:58:14;;;;;;;13.83;4.10;;;;;;;6.83;100.00;101138.94;5023095;28;20308;-72
2023/01/14 06:06:29;;;;;;;13.17;3.40;;;;;;;6.84;100.00;101139.00;5027791;28;20912;-72
2023/01/14 06:08:59;;;;;;;13.73;3.27;;;;;;;6.86;100.00;101123.78;5022465;28;20213;-73
2023/01/14 06:11:27;;;;;;;11.27;3.13;;;;;;;6.86;100.00;101134.81;5027626;28;20217;-73
2023/01/14 06:13:56;;;;;;;15.07;3.43;;;;;;;6.85;100.00;101128.00;5026101;28;20252;-72
2023/01/14 06:16:23;;;;;;;8.70;2.90;;;;;;;6.86;100.00;101118.72;5026488;28;20195;-72
2023/01/14 06:18:49;;;;;;;14.53;3.83;;;;;;;6.88;100.00;101122.16;5024007;28;20194;-73
2023/01/14 06:21:21;;;;;;;17.90;4.10;;;;;;;6.92;100.00;101113.84;5031149;28;20210;-72
2023/01/14 06:23:47;;;;;;;10.60;3.00;;;;;;;6.92;100.00;101117.25;5027161;28;20558;-73
2023/01/14 06:26:15;;;;;;;15.03;3.50;;;;;;;6.92;100.00;101117.25;5020718;28;20664;-73
2023/01/14 06:28:42;;;;;;;15.30;3.10;;;;;;;6.91;100.00;101117.19;5021856;28;20634;-72
2023/01/14 06:31:12;;;;;;;12.67;3.00;;;;;;;6.93;100.00;101123.22;5019673;28;20218;-73
2023/01/14 06:33:39;;;;;;;8.90;3.13;;;;;;;6.90;100.00;101113.78;5024113;28;20240;-72
2023/01/14 06:36:05;;;;;;;17.10;4.13;;;;;;;6.88;100.00;101111.97;5003684;28;20192;-73
2023/01/14 06:38:31;;;;;;;18.93;3.73;;;;;;;6.92;100.00;101118.94;5026005;28;21204;-73
2023/01/14 06:41:01;;;;;;;16.47;5.00;;;;;;;6.94;100.00;101115.63;5025795;28;20332;-73
2023/01/14 06:43:27;;;;;;;15.60;4.00;;;;;;;6.94;100.00;101115.63;5030647;28;20313;-72
2023/01/14 06:45:56;;;;;;;13.03;3.50;;;;;;;6.93;100.00;101108.81;5024504;28;20653;-73
2023/01/14 06:48:23;;;;;;;22.07;4.90;;;;;;;6.96;100.00;101108.06;5026170;28;20186;-73
2023/01/14 06:50:49;;;;;;;12.20;3.60;;;;;;;6.94;100.00;101102.91;5025174;28;20186;-73
2023/01/14 06:53:15;;;;;;;13.27;3.90;;;;;;;6.94;100.00;101102.91;5022220;28;20195;-73
2023/01/14 06:55:40;;;;;;;10.67;4.00;;;;;;;6.94;100.00;101107.13;5026170;28;20190;-73
2023/01/14 06:58:06;;;;;;;15.73;4.57;;;;;;;6.94;100.00;101109.66;5027133;28;20674;-73
2023/01/14 07:00:32;;;;;;;20.40;3.87;;;;;;;6.92;100.00;101112.19;5026606;28;20222;-73
2023/01/14 07:02:58;;;;;;;16.73;4.63;;;;;;;6.91;100.00;101107.88;5023221;28;20210;-73
2023/01/14 07:05:23;;;;;;;17.60;4.60;;;;;;;6.92;100.00;101109.63;5009521;28;20212;-73
2023/01/14 07:07:49;;;;;;;13.97;3.97;;;;;;;6.93;100.00;101105.38;5023153;28;20210;-72
2023/01/14 07:10:16;;;;;;;15.10;4.00;;;;;;;6.93;100.00;101113.03;5007025;28;20565;-73
2023/01/14 07:12:48;;;;;;;12.30;3.90;;;;;;;6.90;100.00;101090.00;5023928;28;20256;-73
2023/01/14 07:15:15;;;;;;;15.13;4.50;;;;;;;6.89;100.00;101098.44;5023800;28;20988;-73
2023/01/14 07:17:41;;;;;;;17.53;4.70;;;;;;;6.84;100.00;101094.84;5033534;28;20194;-73
2023/01/14 07:20:08;;;;;;;16.60;4.60;;;;;;;6.79;100.00;101088.72;5027255;28;20233;-73
2023/01/14 07:22:34;;;;;;;15.97;4.47;;;;;;;6.76;100.00;101093.69;5030930;28;20206;-73
2023/01/14 07:25:01;;;;;;;18.57;4.60;;;;;;;6.72;100.00;101086.78;5028354;28;20202;-73
2023/01/14 07:27:27;;;;;;;19.67;4.63;;;;;;;6.69;100.00;101096.81;5028276;28;20664;-73
2023/01/14 07:29:53;;;;;;;15.10;4.53;;;;;;;6.64;100.00;101088.16;5024596;28;20193;-73
2023/01/14 07:32:18;;;;;;;16.27;3.73;;;;;;;6.58;100.00;101080.28;5026313;28;20337;-72
2023/01/14 07:34:44;;;;;;;14.47;4.80;;;;;;;6.56;100.00;101081.88;5029996;28;20300;-72
2023/01/14 07:37:09;;;;;;;17.17;4.03;;;;;;;6.53;100.00;101079.22;5026353;28;20191;-73
2023/01/14 07:39:35;;;;;;;22.10;5.60;;;;;;;6.51;100.00;101073.22;5027307;28;20194;-72
2023/01/14 07:42:00;;;;;;;15.00;4.57;;;;;;;6.48;100.00;101066.34;5028799;28;20231;-73
2023/01/14 07:44:25;;;;;;;14.03;4.40;;;;;;;6.46;100.00;101069.63;5026859;28;20209;-73
2023/01/14 07:46:54;;;;;;;12.37;4.13;;;;;;;6.42;100.00;101072.84;5027647;28;20186;-73
2023/01/14 07:49:21;;;;;;;22.33;4.50;;;;;;;6.40;100.00;101075.34;5030030;28;20201;-73
2023/01/14 07:51:47;;;;;;;17.33;4.33;;;;;;;6.37;100.00;101062.53;5024638;28;20710;-73
2023/01/14 07:54:12;;;;;;;17.93;4.63;;;;;;;6.33;100.00;101055.56;5023953;28;20196;-72
2023/01/14 07:56:38;;;;;;;15.20;3.93;;;;;;;6.33;100.00;101063.19;5012177;28;20563;-72
2023/01/14 07:59:03;;;;;;;17.90;4.23;;;;;;;6.31;100.00;101063.94;5025992;28;20198;-73
2023/01/14 08:01:29;;;;;;;16.60;4.00;;;;;;;6.30;100.00;101068.16;5021127;28;20222;-72
2023/01/14 08:03:54;;;;;;;15.33;4.27;;;;;;;6.31;100.00;101071.56;5021754;28;20198;-73
2023/01/14 08:06:20;;;;;;;19.63;3.83;;;;;;;6.30;100.00;101077.44;5025211;28;20237;-72
2023/01/14 08:08:45;;;;;;;19.87;4.43;;;;;;;6.27;100.00;101098.53;5026541;28;20301;-72
2023/01/14 08:11:11;;;;;;;18.93;4.93;;;;;;;6.25;100.00;101084.03;5023604;28;20286;-72
2023/01/14 08:13:36;;;;;;;16.00;4.47;;;;;;;6.28;100.00;101082.50;5028268;28;20596;-72
2023/01/14 08:16:03;;;;;;;15.70;3.80;;;;;;;6.31;100.00;101087.69;5026951;28;20272;-72
2023/01/14 08:18:31;;;;;;;13.43;3.97;;;;;;;6.31;100.00;101080.06;5024421;28;20252;-72
2023/01/14 08:21:03;;;;;;;20.43;4.40;;;;;;;6.35;100.00;101073.44;5025333;28;20623;-72
2023/01/14 08:23:29;;;;;;;19.33;4.50;;;;;;;6.33;100.00;101073.38;5025318;28;20672;-72
2023/01/14 08:26:03;;;;;;;15.07;4.13;;;;;;;6.38;100.00;101071.88;5024079;28;20194;-72
2023/01/14 08:28:28;;;;;;;14.57;3.77;;;;;;;6.46;100.00;101070.50;5010149;28;20190;-71
2023/01/14 08:31:05;;;;;;;21.13;4.23;;;;;;;6.47;100.00;101064.59;5023351;28;20229;-72
2023/01/14 08:33:32;;;;;;;17.77;4.20;;;;;;;6.45;100.00;101065.34;5026103;28;20198;-73
2023/01/14 08:36:13;;;;;;;15.10;4.60;;;;;;;6.48;100.00;101057.81;5011745;28;20190;-72
2023/01/14 08:38:40;;;;;;;17.93;4.50;;;;;;;6.45;100.00;101052.63;5027049;28;20701;-72
2023/01/14 08:41:11;;;;;;;19.90;4.70;;;;;;;6.40;100.00;101049.06;5025728;28;20214;-72
2023/01/14 08:43:38;;;;;;;19.80;5.27;;;;;;;6.40;100.00;101054.13;5027570;28;20224;-71
2023/01/14 08:46:05;;;;;;;22.87;4.93;;;;;;;6.44;100.00;101044.13;5028898;28;20660;-72
2023/01/14 08:48:31;;;;;;;23.10;4.63;;;;;;;6.46;100.00;101040.00;5028810;28;20207;-71
2023/01/14 08:51:03;;;;;;;17.17;4.50;;;;;;;6.49;100.00;101029.06;5019824;28;20226;-74
2023/01/14 08:53:29;;;;;;;19.37;4.17;;;;;;;6.53;100.00;101033.44;5020658;28;20222;-73
2023/01/14 08:55:56;;;;;;;14.70;4.57;;;;;;;6.54;100.00;101025.03;5006649;28;20276;-74
2023/01/14 08:58:22;;;;;;;21.90;4.83;;;;;;;6.53;100.00;101013.97;5023927;28;20191;-73
2023/01/14 09:00:48;;;;;;;19.27;4.63;;;;;;;6.52;100.00;101012.25;5035562;28;20214;-73
2023/01/14 09:03:13;;;;;;;21.03;4.60;;;;;;;6.58;100.00;101011.63;5028324;28;20224;-73
2023/01/14 09:05:38;;;;;;;22.93;5.43;;;;;;;6.60;100.00;101000.69;5016658;28;20194;-72
2023/01/14 09:19:04;;;;;;;19.10;4.73;;;;;;;6.74;100.00;100985.91;5029401;28;20275;-73
2023/01/14 09:21:29;;;;;;;20.03;5.10;;;;;;;6.79;100.00;100985.28;5021663;28;20859;-73
2023/01/14 09:23:55;;;;;;;21.40;5.87;;;;;;;6.75;100.00;100985.09;5023699;28;20280;-73
2023/01/14 09:26:20;;;;;;;22.23;6.07;;;;;;;6.72;100.00;100980.75;5004760;28;20640;-74
2023/01/14 09:28:46;;;;;;;19.30;5.67;;;;;;;6.74;100.00;100991.88;5026047;28;20693;-74
2023/01/14 09:31:12;;;;;;;19.90;5.63;;;;;;;6.71;100.00;100976.50;5024079;28;20214;-72
2023/01/14 09:33:37;;;;;;;19.77;6.47;;;;;;;6.85;100.00;100964.25;5027665;28;20248;-68
2023/01/14 09:36:03;;;;;;;26.90;6.50;;;;;;;7.00;100.00;100965.66;5026901;28;20281;-69
2023/01/14 09:38:28;;;;;;;23.80;6.00;;;;;;;7.01;100.00;100961.47;5022741;28;20213;-69
2023/01/14 09:40:55;;;;;;;22.23;6.63;;;;;;;7.05;100.00;100956.50;5024920;28;20242;-75
2023/01/14 09:43:21;;;;;;;19.37;6.47;;;;;;;6.90;100.00;100952.56;5004194;28;20672;-73
2023/01/14 09:45:58;;;;;;;24.87;6.67;;;;;;;6.86;100.00;100945.66;5018801;28;20216;-73
2023/01/14 09:48:26;;;;;;;22.03;7.10;;;;;;;6.89;100.00;100943.19;5005373;28;20201;-74
2023/01/14 09:51:21;;;;;;;21.03;6.00;;;;;;;6.86;100.00;100941.41;5019556;28;20265;-74
2023/01/14 09:54:02;;;;;;;22.47;7.07;;;;;;;6.90;100.00;100942.38;5021462;28;20194;-74
2023/01/14 09:56:42;;;;;;;22.10;6.73;;;;;;;6.94;100.00;100941.69;4998040;28;20257;-74
2023/01/14 09:59:23;;;;;;;24.67;6.97;;;;;;;6.98;100.00;100938.44;5024774;28;20205;-74
2023/01/14 10:02:12;;;;;;;19.63;6.53;;;;;;;6.97;100.00;100926.53;5023141;28;20225;-74
2023/01/14 10:05:05;;;;;;;28.27;6.73;;;;;;;7.00;100.00;100931.72;5027341;28;20213;-74
2023/01/14 10:07:33;;;;;;;21.47;6.67;;;;;;;7.00;100.00;100913.91;5021012;28;20199;-73
2023/01/14 10:10:01;;;;;;;22.37;5.83;;;;;;;7.02;100.00;100919.91;5025757;28;20318;-74
2023/01/14 10:12:34;;;;;;;19.53;6.63;;;;;;;7.02;100.00;100910.59;5026396;28;20304;-74
2023/01/14 10:15:26;;;;;;;24.17;6.20;;;;;;;7.03;100.00;100899.59;5025318;28;20556;-74
2023/01/14 10:17:57;;;;;;;15.60;5.40;;;;;;;7.04;100.00;100897.94;4978079;28;20241;-73
2023/01/14 10:20:34;;;;;;;21.63;5.60;;;;;;;7.10;100.00;100885.41;5003576;28;20242;-74
2023/01/14 10:23:14;;;;;;;33.47;5.90;;;;;;;7.11;100.00;100884.59;5017764;28;20213;-72
2023/01/14 10:25:47;;;;;;;21.60;6.00;;;;;;;7.14;100.00;100897.44;5021116;28;20303;-72
2023/01/14 10:28:15;;;;;;;22.00;5.93;;;;;;;7.11;100.00;100870.19;5018939;28;20187;-72
2023/01/14 10:30:42;;;;;;;23.27;4.90;;;;;;;7.10;100.00;100865.88;5023264;28;20186;-72
2023/01/14 10:33:13;;;;;;;25.53;5.47;;;;;;;7.13;100.00;100860.91;5031221;28;20256;-71
2023/01/14 10:35:42;;;;;;;21.53;4.83;;;;;;;7.14;100.00;100854.16;5028104;28;20194;-71
2023/01/14 10:38:15;;;;;;;23.40;5.47;;;;;;;7.15;100.00;100840.59;5021778;28;20562;-72
2023/01/14 10:40:41;;;;;;;19.87;6.17;;;;;;;7.17;100.00;100826.22;5025080;28;20198;-72
2023/01/14 10:43:34;;;;;;;21.20;5.13;;;;;;;7.14;100.00;100826.16;5024114;28;20250;-74
2023/01/14 10:46:00;;;;;;;21.37;5.90;;;;;;;7.17;100.00;100808.41;5024469;28;20221;-74
2023/01/14 10:48:32;;;;;;;20.67;5.33;;;;;;;7.17;100.00;100795.66;5028601;28;20183;-73
2023/01/14 10:51:46;;;;;;;20.17;5.10;;;;;;;7.22;100.00;100805.19;5023505;28;20198;-73
2023/01/14 10:54:14;;;;;;;24.70;4.97;;;;;;;7.18;100.00;100783.00;5026570;28;20187;-73
2023/01/14 10:56:44;;;;;;;20.90;4.57;;;;;;;7.20;100.00;100780.50;5027639;28;20766;-73
2023/01/14 10:59:39;;;;;;;17.83;5.00;;;;;;;7.20;100.00;100771.19;5026865;28;20262;-72
2023/01/14 11:02:18;;;;;;;24.53;4.17;;;;;;;7.22;100.00;100750.84;4996624;28;20257;-73
2023/01/14 11:04:44;;;;;;;18.07;4.10;;;;;;;7.25;100.00;100735.66;5016439;28;20685;-73
2023/01/14 11:07:17;;;;;;;17.33;4.60;;;;;;;7.23;100.00;100738.16;5029267;28;20549;-74
2023/01/14 11:09:42;;;;;;;16.17;4.27;;;;;;;7.24;100.00;100724.59;5027295;28;20273;-74
2023/01/14 11:12:36;;;;;;;14.37;4.40;;;;;;;7.25;100.00;100722.94;5029155;28;20297;-71
2023/01/14 11:15:02;;;;;;;18.80;4.60;;;;;;;7.26;100.00;100719.56;5030143;28;20206;-72
2023/01/14 11:17:30;;;;;;;23.57;4.70;;;;;;;7.28;100.00;100706.06;5030166;28;20557;-72
2023/01/14 11:20:20;;;;;;;17.07;4.37;;;;;;;7.29;100.00;100695.09;5032967;28;20837;-73
2023/01/14 11:22:55;;;;;;;16.23;3.43;;;;;;;7.29;100.00;100684.03;5026676;28;20213;-72
2023/01/14 11:25:22;;;;;;;22.37;3.70;;;;;;;7.30;100.00;100685.75;5029847;28;20186;-73
2023/01/14 11:27:50;;;;;;;18.07;4.47;;;;;;;7.30;100.00;100678.09;5018926;28;20195;-72
2023/01/14 11:30:21;;;;;;;16.17;4.00;;;;;;;7.28;100.00;100665.31;5028700;28;20244;-72
2023/01/14 11:32:49;;;;;;;15.93;4.30;;;;;;;7.31;100.00;100652.69;5022936;28;20214;-72
2023/01/14 11:35:26;;;;;;;16.57;3.50;;;;;;;7.46;100.00;100655.66;5027875;28;20221;-71
2023/01/14 11:37:56;;;;;;;10.20;3.37;;;;;;;7.52;100.00;100652.44;4998697;28;20598;-70
2023/01/14 11:41:28;;;;;;;18.77;5.00;;;;;;;7.51;100.00;100636.28;5021877;28;20260;-70
2023/01/14 11:43:13;;;;;;;18.37;3.80;;;;;;;7.50;100.00;100634.56;5021416;28;20661;-72
2023/01/14 11:45:38;;;;;;;11.67;2.97;;;;;;;7.40;100.00;100632.59;5023660;28;20230;-71
2023/01/14 11:48:23;;;;;;;13.10;3.37;;;;;;;7.37;100.00;100618.91;5028300;28;20202;-71
2023/01/14 11:51:16;;;;;;;17.73;3.60;;;;;;;7.37;100.00;100608.72;5024344;28;20174;-70
2023/01/14 11:53:41;;;;;;;15.93;3.80;;;;;;;7.36;100.00;100612.94;5025840;28;20193;-70
2023/01/14 11:56:14;;;;;;;14.03;3.53;;;;;;;7.29;100.00;100607.63;5025576;28;20245;-71
2023/01/14 11:58:39;;;;;;;15.60;3.20;;;;;;;7.28;100.00;100588.94;5003978;28;20798;-71
2023/01/14 12:01:26;;;;;;;14.97;3.73;;;;;;;7.23;100.00;100584.56;5029933;28;20210;-71
2023/01/14 12:03:54;;;;;;;15.70;4.17;;;;;;;7.21;100.00;100574.31;5020580;28;20183;-71
2023/01/14 12:06:27;;;;;;;17.63;3.77;;;;;;;7.18;100.00;100551.31;5025444;28;20205;-71
2023/01/14 12:08:56;;;;;;;13.87;3.70;;;;;;;7.14;100.00;100552.03;5024244;28;20203;-71